createdAt,value
2019-02-21T00:02:08.128Z,5.10
2019-02-21T00:04:36.655Z,5.20
2019-02-21T00:07:05.105Z,5.20
2019-02-21T00:09:33.742Z,5.10
2019-02-21T00:12:02.272Z,5.10
2019-02-21T00:14:30.911Z,5.10
2019-02-21T00:16:59.423Z,5.10
2019-02-21T00:19:27.948Z,5.10
2019-02-21T00:21:56.453Z,5.10
2019-02-21T00:24:25.157Z,5.10
2019-02-21T00:26:53.691Z,5.10
2019-02-21T00:29:22.141Z,5.00
2019-02-21T00:31:50.596Z,5.00
2019-02-21T00:34:19.092Z,5.00
2019-02-21T00:36:47.609Z,5.00
2019-02-21T00:39:16.135Z,5.00
2019-02-21T00:41:44.743Z,5.00
2019-02-21T00:44:13.376Z,5.00
2019-02-21T00:46:42.045Z,5.10
2019-02-21T00:49:10.646Z,5.10
2019-02-21T00:51:39.311Z,5.00
2019-02-21T00:54:07.932Z,5.10
2019-02-21T00:56:36.534Z,5.00
2019-02-21T00:59:05.410Z,5.10
2019-02-21T01:01:33.929Z,5.10
2019-02-21T01:04:02.504Z,5.10
2019-02-21T01:06:31.102Z,5.10
2019-02-21T01:08:59.685Z,5.20
2019-02-21T01:11:28.177Z,5.20
2019-02-21T01:13:56.735Z,5.10
2019-02-21T01:16:25.186Z,5.20
2019-02-21T01:18:53.644Z,5.20
2019-02-21T01:21:22.111Z,5.20
2019-02-21T01:23:50.607Z,5.20
2019-02-21T01:26:19.121Z,5.20
2019-02-21T01:28:47.579Z,5.20
2019-02-21T01:31:16.075Z,5.20
2019-02-21T01:33:44.531Z,5.20
2019-02-21T01:36:12.994Z,5.20
2019-02-21T01:38:41.515Z,5.20
2019-02-21T01:41:09.977Z,5.20
2019-02-21T01:43:38.423Z,5.20
2019-02-21T01:46:06.884Z,5.20
2019-02-21T01:48:35.333Z,5.20
2019-02-21T01:51:03.787Z,5.20
2019-02-21T01:53:32.250Z,5.20
2019-02-21T01:56:00.737Z,5.20
2019-02-21T01:58:29.196Z,5.20
2019-02-21T02:01:07.608Z,5.30
2019-02-21T02:03:28.587Z,5.30
2019-02-21T02:05:57.068Z,5.30
2019-02-21T02:08:25.525Z,5.30
2019-02-21T02:10:54.058Z,5.30
2019-02-21T02:13:24.855Z,5.30
2019-02-21T02:15:52.912Z,5.30
2019-02-21T02:18:21.362Z,5.30
2019-02-21T02:20:49.854Z,5.20
2019-02-21T02:23:18.386Z,5.20
2019-02-21T02:25:46.919Z,5.30
2019-02-21T02:28:15.485Z,5.30
2019-02-21T02:30:43.952Z,5.30
2019-02-21T02:33:12.716Z,5.30
2019-02-21T02:35:41.185Z,5.30
2019-02-21T02:38:09.716Z,5.30
2019-02-21T02:40:38.182Z,5.30
2019-02-21T02:43:06.645Z,5.30
2019-02-21T02:45:35.175Z,5.30
2019-02-21T02:48:03.656Z,5.30
2019-02-21T02:50:32.205Z,5.30
2019-02-21T02:53:01.047Z,5.30
2019-02-21T02:55:29.503Z,5.40
2019-02-21T02:57:58.464Z,5.40
2019-02-21T03:00:27.017Z,5.40
2019-02-21T03:02:55.767Z,5.40
2019-02-21T03:05:24.260Z,5.40
2019-02-21T03:07:52.840Z,5.50
2019-02-21T03:10:21.303Z,5.50
2019-02-21T03:12:49.826Z,5.50
2019-02-21T03:15:18.327Z,5.50
2019-02-21T03:17:46.843Z,5.50
2019-02-21T03:20:15.472Z,5.50
2019-02-21T03:22:44.034Z,5.50
2019-02-21T03:25:12.641Z,5.60
2019-02-21T03:27:41.138Z,5.60
2019-02-21T03:30:12.435Z,5.60
2019-02-21T03:32:41.025Z,5.70
2019-02-21T03:35:09.666Z,5.60
2019-02-21T03:37:38.198Z,5.70
2019-02-21T03:40:09.286Z,5.60
2019-02-21T03:42:37.784Z,5.70
2019-02-21T03:45:09.433Z,5.70
2019-02-21T03:47:37.949Z,5.70
2019-02-21T03:50:08.942Z,5.70
2019-02-21T03:52:37.397Z,5.70
2019-02-21T03:55:07.231Z,5.70
2019-02-21T03:57:35.694Z,5.70
2019-02-21T04:00:06.795Z,5.80
2019-02-21T04:02:35.406Z,5.80
2019-02-21T04:05:05.167Z,5.80
2019-02-21T04:07:33.623Z,5.80
2019-02-21T04:10:02.267Z,5.80
2019-02-21T04:12:30.790Z,5.80
2019-02-21T04:14:59.243Z,5.80
2019-02-21T04:17:28.079Z,5.70
2019-02-21T04:19:56.532Z,5.70
2019-02-21T04:22:25.008Z,5.70
2019-02-21T04:24:53.466Z,5.60
2019-02-21T04:27:22.010Z,5.60
2019-02-21T04:29:50.606Z,5.60
2019-02-21T04:32:19.086Z,5.50
2019-02-21T04:34:47.614Z,5.50
2019-02-21T04:37:16.147Z,5.40
2019-02-21T04:39:44.601Z,5.40
2019-02-21T04:42:13.082Z,5.30
2019-02-21T04:44:41.618Z,5.30
2019-02-21T04:47:10.142Z,5.30
2019-02-21T04:49:38.608Z,5.30
2019-02-21T04:52:07.209Z,5.20
2019-02-21T04:54:35.801Z,5.20
2019-02-21T04:57:04.265Z,5.20
2019-02-21T04:59:32.729Z,5.20
2019-02-21T05:02:01.288Z,5.20
2019-02-21T05:04:29.737Z,5.10
2019-02-21T05:06:58.215Z,5.20
2019-02-21T05:09:27.323Z,5.10
2019-02-21T05:11:56.086Z,5.10
2019-02-21T05:14:24.608Z,5.10
2019-02-21T05:16:53.084Z,5.10
2019-02-21T05:19:21.551Z,5.10
2019-02-21T05:21:50.012Z,5.10
2019-02-21T05:24:18.476Z,5.10
2019-02-21T05:26:51.570Z,5.10
2019-02-21T05:29:20.029Z,5.10
2019-02-21T05:31:52.769Z,5.10
2019-02-21T05:34:34.938Z,5.10
2019-02-21T05:37:14.190Z,5.10
2019-02-21T05:39:44.288Z,5.10
2019-02-21T05:42:20.095Z,5.10
2019-02-21T05:45:06.599Z,5.10
2019-02-21T05:47:39.545Z,5.10
2019-02-21T05:50:12.281Z,5.10
2019-02-21T05:52:42.377Z,5.10
2019-02-21T05:55:12.510Z,5.20
2019-02-21T05:57:51.607Z,5.20
2019-02-21T06:00:27.785Z,5.20
2019-02-21T06:02:57.989Z,5.20
2019-02-21T06:05:40.012Z,5.20
2019-02-21T06:08:28.419Z,5.20
2019-02-21T06:11:04.155Z,5.20
2019-02-21T06:13:34.293Z,5.30
2019-02-21T06:16:04.387Z,5.30
2019-02-21T06:18:47.361Z,5.30
2019-02-21T06:21:17.527Z,5.30
2019-02-21T06:23:53.699Z,5.30
2019-02-21T06:26:23.788Z,5.30
2019-02-21T06:28:53.930Z,5.40
2019-02-21T06:31:22.528Z,5.40
2019-02-21T06:33:50.999Z,5.40
2019-02-21T06:36:19.524Z,5.40
2019-02-21T06:38:48.057Z,5.40
2019-02-21T06:41:16.590Z,5.50
2019-02-21T06:43:45.131Z,5.50
2019-02-21T06:46:13.965Z,5.50
2019-02-21T06:49:02.184Z,5.50
2019-02-21T06:51:30.703Z,5.50
2019-02-21T06:53:59.149Z,5.50
2019-02-21T06:56:27.636Z,5.60
2019-02-21T06:58:56.091Z,5.60
2019-02-21T07:01:29.147Z,5.60
2019-02-21T07:03:54.797Z,5.60
2019-02-21T07:06:31.384Z,5.60
2019-02-21T07:08:54.219Z,5.60
2019-02-21T07:11:25.303Z,5.60
2019-02-21T07:13:53.335Z,5.60
2019-02-21T07:16:22.061Z,5.70
2019-02-21T07:18:50.594Z,5.70
2019-02-21T07:21:19.067Z,5.70
2019-02-21T07:23:47.612Z,5.70
2019-02-21T07:26:16.099Z,5.70
2019-02-21T07:28:44.694Z,5.80
2019-02-21T07:31:13.247Z,5.80
2019-02-21T07:33:41.779Z,5.80
2019-02-21T07:36:11.127Z,5.80
2019-02-21T07:38:39.906Z,5.80
2019-02-21T07:41:08.455Z,5.80
2019-02-21T07:43:37.299Z,5.90
2019-02-21T07:46:06.962Z,5.90
2019-02-21T07:48:36.624Z,5.90
2019-02-21T07:51:05.807Z,5.90
2019-02-21T07:53:34.434Z,5.90
2019-02-21T07:56:02.953Z,5.90
2019-02-21T07:58:31.412Z,5.90
2019-02-21T08:00:59.902Z,5.90
2019-02-21T08:03:35.781Z,5.90
2019-02-21T08:05:58.539Z,6.00
2019-02-21T08:08:27.003Z,6.00
2019-02-21T08:10:55.460Z,6.00
2019-02-21T08:13:23.953Z,6.10
2019-02-21T08:15:52.416Z,6.10
2019-02-21T08:18:20.941Z,6.10
2019-02-21T08:20:49.428Z,6.10
2019-02-21T08:23:18.008Z,6.10
2019-02-21T08:25:46.471Z,6.10
2019-02-21T08:28:14.945Z,6.10
2019-02-21T08:30:43.475Z,6.10
2019-02-21T08:33:16.237Z,6.10
2019-02-21T08:35:44.702Z,6.10
2019-02-21T08:38:13.194Z,6.10
2019-02-21T08:40:41.650Z,6.10
2019-02-21T08:43:10.093Z,6.10
2019-02-21T08:45:38.774Z,6.10
2019-02-21T08:48:07.320Z,6.10
2019-02-21T08:50:35.773Z,6.20
2019-02-21T08:53:04.261Z,6.30
2019-02-21T08:55:32.850Z,6.30
2019-02-21T08:58:02.151Z,6.30
2019-02-21T09:00:31.699Z,6.40
2019-02-21T09:03:00.676Z,6.50
2019-02-21T09:05:29.296Z,6.50
2019-02-21T09:07:57.900Z,6.60
2019-02-21T09:10:27.701Z,6.60
2019-02-21T09:12:56.606Z,6.70
2019-02-21T09:15:25.330Z,6.70
2019-02-21T09:17:54.348Z,6.70
2019-02-21T09:20:23.258Z,6.80
2019-02-21T09:22:51.705Z,6.70
2019-02-21T09:25:20.170Z,6.80
2019-02-21T09:27:48.632Z,6.80
2019-02-21T09:30:18.622Z,6.80
2019-02-21T09:32:47.172Z,6.70
2019-02-21T09:35:15.628Z,6.70
2019-02-21T09:37:44.071Z,6.70
2019-02-21T09:40:14.604Z,6.70
2019-02-21T09:42:43.134Z,6.70
2019-02-21T09:45:17.016Z,6.70
2019-02-21T09:47:45.547Z,6.70
2019-02-21T09:50:14.413Z,6.80
2019-02-21T09:52:42.940Z,6.80
2019-02-21T09:55:14.172Z,6.80
2019-02-21T09:57:42.774Z,6.70
2019-02-21T10:00:14.339Z,6.80
2019-02-21T10:02:42.947Z,6.80
2019-02-21T10:05:11.483Z,6.80
2019-02-21T10:07:39.940Z,6.80
2019-02-21T10:10:11.812Z,6.80
2019-02-21T10:12:40.433Z,6.80
2019-02-21T10:15:14.623Z,6.80
2019-02-21T10:17:43.442Z,6.80
2019-02-21T10:20:20.377Z,6.80
2019-02-21T10:22:49.321Z,6.90
2019-02-21T10:25:26.647Z,7.00
2019-02-21T10:27:55.175Z,7.10
2019-02-21T10:30:24.459Z,7.10
2019-02-21T10:32:53.008Z,7.10
2019-02-21T10:35:21.472Z,7.20
2019-02-21T10:37:49.996Z,7.20
2019-02-21T10:40:37.811Z,7.20
2019-02-21T10:43:06.355Z,7.30
2019-02-21T10:45:34.812Z,7.30
2019-02-21T10:48:03.276Z,7.30
2019-02-21T10:50:31.818Z,7.30
2019-02-21T10:53:00.265Z,7.30
2019-02-21T10:55:28.728Z,7.30
2019-02-21T10:57:57.187Z,7.20
2019-02-21T11:00:29.262Z,7.20
2019-02-21T11:02:58.031Z,7.20
2019-02-21T11:05:26.575Z,7.20
2019-02-21T11:07:55.101Z,7.30
2019-02-21T11:10:27.046Z,7.20
2019-02-21T11:12:55.568Z,7.20
2019-02-21T11:15:25.969Z,7.10
2019-02-21T11:17:54.671Z,7.10
2019-02-21T11:20:23.642Z,7.00
2019-02-21T11:22:52.484Z,7.00
2019-02-21T11:25:20.938Z,7.00
2019-02-21T11:27:49.482Z,6.90
2019-02-21T11:30:21.967Z,6.90
2019-02-21T11:32:50.427Z,6.90
2019-02-21T11:35:18.898Z,6.90
2019-02-21T11:37:47.709Z,6.80
2019-02-21T11:40:17.782Z,6.90
2019-02-21T11:42:46.663Z,6.90
2019-02-21T11:45:16.675Z,6.90
2019-02-21T11:47:45.195Z,6.90
2019-02-21T11:50:16.203Z,6.90
2019-02-21T11:52:44.796Z,6.90
2019-02-21T11:55:19.142Z,6.90
2019-02-21T11:57:47.599Z,6.90
2019-02-21T12:00:18.868Z,6.90
2019-02-21T12:02:47.553Z,6.90
2019-02-21T12:05:17.775Z,6.90
2019-02-21T12:07:46.344Z,6.80
2019-02-21T12:10:15.333Z,6.80
2019-02-21T12:12:43.853Z,6.80
2019-02-21T12:15:13.506Z,6.80
2019-02-21T12:17:43.061Z,6.80
2019-02-21T12:20:16.603Z,6.80
2019-02-21T12:22:45.068Z,6.80
2019-02-21T12:25:24.590Z,6.90
2019-02-21T12:27:53.143Z,6.90
2019-02-21T12:30:21.886Z,6.90
2019-02-21T12:32:50.345Z,6.90
2019-02-21T12:35:29.280Z,6.80
2019-02-21T12:37:49.151Z,6.90
2019-02-21T12:40:19.722Z,6.80
2019-02-21T12:42:48.184Z,6.80
2019-02-21T12:45:21.073Z,6.80
2019-02-21T12:47:53.598Z,6.80
2019-02-21T12:50:19.755Z,6.80
2019-02-21T12:52:48.295Z,6.70
2019-02-21T12:55:27.320Z,6.80
2019-02-21T12:57:47.014Z,6.80
2019-02-21T13:00:20.470Z,6.80
2019-02-21T13:02:48.942Z,6.70
2019-02-21T13:05:17.647Z,6.80
2019-02-21T13:07:46.116Z,6.70
2019-02-21T13:10:19.906Z,6.70
2019-02-21T13:12:48.436Z,6.70
2019-02-21T13:15:17.068Z,6.60
2019-02-21T13:17:45.671Z,6.60
2019-02-21T13:20:17.404Z,6.60
2019-02-21T13:22:45.938Z,6.60
2019-02-21T13:25:16.365Z,6.60
2019-02-21T13:27:44.891Z,6.50
2019-02-21T13:30:17.990Z,6.50
2019-02-21T13:32:46.528Z,6.50
2019-02-21T13:35:14.993Z,6.50
2019-02-21T13:37:43.499Z,6.50
2019-02-21T13:40:14.633Z,6.40
2019-02-21T13:42:43.099Z,6.40
2019-02-21T13:45:16.995Z,6.40
2019-02-21T13:47:44.338Z,6.40
2019-02-21T13:50:17.645Z,6.40
2019-02-21T13:52:46.120Z,6.50
2019-02-21T13:55:14.827Z,6.50
2019-02-21T13:57:43.339Z,6.50
2019-02-21T14:00:14.255Z,6.50
2019-02-21T14:02:42.709Z,6.50
2019-02-21T14:05:11.162Z,6.40
2019-02-21T14:07:39.631Z,6.40
2019-02-21T14:10:13.316Z,6.50
2019-02-21T14:12:41.924Z,6.40
2019-02-21T14:15:19.334Z,6.40
2019-02-21T14:17:47.936Z,6.40
2019-02-21T14:20:16.430Z,6.40
2019-02-21T14:22:44.948Z,6.40
2019-02-21T14:25:13.481Z,6.30
2019-02-21T14:27:41.956Z,6.30
2019-02-21T14:30:19.546Z,6.30
2019-02-21T14:32:48.002Z,6.30
2019-02-21T14:35:16.912Z,6.30
2019-02-21T14:37:45.859Z,6.20
2019-02-21T14:40:16.576Z,6.20
2019-02-21T14:42:45.283Z,6.20
2019-02-21T14:47:56.611Z,6.20
2019-02-21T14:50:25.139Z,6.20
2019-02-21T14:52:53.664Z,6.20
2019-02-21T14:55:22.134Z,6.20
2019-02-21T14:57:50.664Z,6.20
2019-02-21T15:00:21.450Z,6.20
2019-02-21T15:02:49.921Z,6.20
2019-02-21T15:05:19.440Z,6.20
2019-02-21T15:07:48.038Z,6.20
2019-02-21T15:10:16.843Z,6.10
2019-02-21T15:12:45.378Z,6.20
2019-02-21T15:15:21.864Z,6.20
2019-02-21T15:17:49.972Z,6.10
2019-02-21T15:20:18.456Z,6.20
2019-02-21T15:22:47.058Z,6.20
2019-02-21T15:25:15.781Z,6.20
2019-02-21T15:27:44.310Z,6.20
2019-02-21T15:30:21.251Z,6.20
2019-02-21T15:32:50.102Z,6.20
2019-02-21T15:35:19.617Z,6.20
2019-02-21T15:37:48.538Z,6.20
2019-02-21T15:40:17.001Z,6.20
2019-02-21T15:42:45.591Z,6.20
2019-02-21T15:45:23.305Z,6.20
2019-02-21T15:47:50.369Z,6.20
2019-02-21T15:50:20.183Z,6.20
2019-02-21T15:52:49.634Z,6.20
2019-02-21T15:55:19.829Z,6.20
2019-02-21T15:57:48.355Z,6.20
2019-02-21T16:00:21.507Z,6.20
2019-02-21T16:02:50.028Z,6.20
2019-02-21T16:05:18.666Z,6.20
2019-02-21T16:07:47.132Z,6.20
2019-02-21T16:10:18.657Z,6.20
2019-02-21T16:12:47.592Z,6.20
2019-02-21T16:15:16.814Z,6.30
2019-02-21T16:17:45.401Z,6.30
2019-02-21T16:20:18.976Z,6.20
2019-02-21T16:22:47.444Z,6.30
2019-02-21T16:25:18.902Z,6.30
2019-02-21T16:27:47.420Z,6.30
2019-02-21T16:30:17.175Z,6.30
2019-02-21T16:32:45.653Z,6.30
2019-02-21T16:35:14.848Z,6.30
2019-02-21T16:37:44.173Z,6.30
2019-02-21T16:40:17.389Z,6.30
2019-02-21T16:42:45.932Z,6.30
2019-02-21T16:45:19.136Z,6.30
2019-02-21T16:47:47.679Z,6.30
2019-02-21T16:50:16.446Z,6.30
2019-02-21T16:52:44.978Z,6.40
2019-02-21T16:55:15.970Z,6.40
2019-02-21T16:57:44.459Z,6.40
2019-02-21T17:00:23.479Z,6.40
2019-02-21T17:02:52.453Z,6.40
2019-02-21T17:05:21.229Z,6.40
2019-02-21T17:07:49.755Z,6.40
2019-02-21T17:10:18.290Z,6.40
2019-02-21T17:12:46.826Z,6.40
2019-02-21T17:15:16.896Z,6.40
2019-02-21T17:17:45.748Z,6.40
2019-02-21T17:20:22.895Z,6.40
2019-02-21T17:22:51.519Z,6.40
2019-02-21T17:25:20.127Z,6.40
2019-02-21T17:27:50.236Z,6.40
2019-02-21T17:30:19.850Z,6.40
2019-02-21T17:32:48.450Z,6.40
2019-02-21T17:35:16.968Z,6.40
2019-02-21T17:37:45.493Z,6.40
2019-02-21T17:40:26.646Z,6.40
2019-02-21T17:42:55.135Z,6.40
2019-02-21T17:45:23.881Z,6.40
2019-02-21T17:47:52.344Z,6.40
2019-02-21T17:50:21.143Z,6.40
2019-02-21T17:52:49.628Z,6.40
2019-02-21T17:55:18.699Z,6.40
2019-02-21T17:57:47.404Z,6.40
2019-02-21T18:00:20.586Z,6.40
2019-02-21T18:02:49.051Z,6.40
2019-02-21T18:05:17.599Z,6.40
2019-02-21T18:07:46.057Z,6.40
2019-02-21T18:10:16.139Z,6.40
2019-02-21T18:12:44.685Z,6.40
2019-02-21T18:15:15.333Z,6.40
2019-02-21T18:17:44.029Z,6.40
2019-02-21T18:20:14.228Z,6.40
2019-02-21T18:22:42.784Z,6.40
2019-02-21T18:25:17.547Z,6.40
2019-02-21T18:27:46.007Z,6.40
2019-02-21T18:30:33.920Z,6.40
2019-02-21T18:33:02.380Z,6.40
2019-02-21T18:35:30.843Z,6.40
2019-02-21T18:37:59.304Z,6.40
2019-02-21T18:40:28.926Z,6.40
2019-02-21T18:42:57.420Z,6.40
2019-02-21T18:45:25.934Z,6.40
2019-02-21T18:47:54.398Z,6.40
2019-02-21T18:50:22.864Z,6.40
2019-02-21T18:52:51.402Z,6.40
2019-02-21T18:55:19.894Z,6.40
2019-02-21T18:57:48.432Z,6.40
2019-02-21T19:00:27.051Z,6.40
2019-02-21T19:02:55.518Z,6.40
2019-02-21T19:05:35.006Z,6.40
2019-02-21T19:08:00.803Z,6.40
2019-02-21T19:10:24.416Z,6.40
2019-02-21T19:12:52.902Z,6.40
2019-02-21T19:15:22.302Z,6.40
2019-02-21T19:17:50.900Z,6.40
2019-02-21T19:20:20.995Z,6.40
2019-02-21T19:22:50.005Z,6.40
2019-02-21T19:25:18.911Z,6.40
2019-02-21T19:27:47.453Z,6.40
2019-02-21T19:30:22.003Z,6.40
2019-02-21T19:32:50.470Z,6.40
2019-02-21T19:35:19.193Z,6.40
2019-02-21T19:37:47.667Z,6.40
2019-02-21T19:40:16.285Z,6.40
2019-02-21T19:42:44.760Z,6.40
2019-02-21T19:45:13.299Z,6.40
2019-02-21T19:47:42.069Z,6.40
2019-02-21T19:50:11.343Z,6.40
2019-02-21T19:52:39.883Z,6.40
2019-02-21T19:55:10.171Z,6.50
2019-02-21T19:57:39.196Z,6.50
2019-02-21T20:00:11.658Z,6.50
2019-02-21T20:02:40.149Z,6.50
2019-02-21T20:05:09.495Z,6.50
2019-02-21T20:07:38.055Z,6.50
2019-02-21T20:10:08.377Z,6.50
2019-02-21T20:12:36.922Z,6.50
2019-02-21T20:15:08.526Z,6.50
2019-02-21T20:17:37.045Z,6.50
2019-02-21T20:20:08.580Z,6.50
2019-02-21T20:22:37.107Z,6.50
2019-02-21T20:25:06.463Z,6.50
2019-02-21T20:27:34.948Z,6.50
2019-02-21T20:30:04.349Z,6.50
2019-02-21T20:32:32.895Z,6.50
2019-02-21T20:35:01.435Z,6.50
2019-02-21T20:37:29.970Z,6.50
2019-02-21T20:39:58.435Z,6.60
2019-02-21T20:42:26.936Z,6.60
2019-02-21T20:44:55.466Z,6.60
2019-02-21T20:47:23.908Z,6.60
2019-02-21T20:49:52.377Z,6.60
2019-02-21T20:52:21.011Z,6.60
2019-02-21T20:54:49.503Z,6.60
2019-02-21T20:57:18.050Z,6.60
2019-02-21T20:59:46.562Z,6.60
2019-02-21T21:02:15.299Z,6.60
2019-02-21T21:04:43.818Z,6.70
2019-02-21T21:07:12.273Z,6.60
2019-02-21T21:09:40.821Z,6.60
2019-02-21T21:12:09.279Z,6.60
2019-02-21T21:14:37.751Z,6.60
2019-02-21T21:17:07.972Z,6.70
2019-02-21T21:19:36.647Z,6.60
2019-02-21T21:22:05.351Z,6.60
2019-02-21T21:24:33.812Z,6.60
2019-02-21T21:27:02.304Z,6.60
2019-02-21T21:29:30.757Z,6.60
2019-02-21T21:31:59.198Z,6.70
2019-02-21T21:34:27.662Z,6.60
2019-02-21T21:36:56.195Z,6.70
2019-02-21T21:39:24.827Z,6.70
2019-02-21T21:41:53.366Z,6.60
2019-02-21T21:44:21.892Z,6.70
2019-02-21T21:46:50.432Z,6.70
2019-02-21T21:49:18.878Z,6.50
2019-02-21T21:51:47.515Z,6.30
2019-02-21T21:54:15.970Z,6.20
2019-02-21T21:56:44.423Z,5.90
2019-02-21T21:59:12.888Z,5.60
2019-02-21T22:01:41.361Z,5.30
2019-02-21T22:04:09.900Z,5.20
2019-02-21T22:06:38.384Z,5.00
2019-02-21T22:09:07.579Z,4.90
2019-02-21T22:11:36.038Z,4.70
2019-02-21T22:14:04.581Z,4.60
2019-02-21T22:16:33.063Z,4.50
2019-02-21T22:19:01.618Z,4.30
2019-02-21T22:21:30.151Z,4.30
2019-02-21T22:23:58.597Z,4.20
2019-02-21T22:26:27.063Z,4.20
2019-02-21T22:28:55.544Z,4.00
2019-02-21T22:31:24.080Z,3.90
2019-02-21T22:33:52.601Z,3.80
2019-02-21T22:36:21.083Z,3.70
2019-02-21T22:38:49.620Z,3.60
2019-02-21T22:41:18.094Z,3.50
2019-02-21T22:43:46.579Z,3.50
2019-02-21T22:46:15.031Z,3.40
2019-02-21T22:48:47.182Z,3.40
2019-02-21T22:51:13.703Z,3.20
2019-02-21T22:53:42.148Z,3.10
2019-02-21T22:56:10.616Z,3.10
2019-02-21T22:58:44.928Z,3.00
2019-02-21T23:01:18.733Z,2.90
2019-02-21T23:03:50.400Z,2.80
2019-02-21T23:06:28.336Z,2.70
2019-02-21T23:08:56.904Z,2.60
2019-02-21T23:11:25.380Z,2.50
2019-02-21T23:13:55.052Z,2.50
2019-02-21T23:16:27.923Z,2.40
2019-02-21T23:18:54.142Z,2.30
2019-02-21T23:21:22.671Z,2.30
2019-02-21T23:23:51.127Z,2.20
2019-02-21T23:26:19.592Z,2.20
2019-02-21T23:28:48.052Z,2.10
2019-02-21T23:31:16.678Z,2.10
2019-02-21T23:33:46.867Z,2.10
2019-02-21T23:36:15.664Z,2.00
2019-02-21T23:38:44.110Z,2.00
2019-02-21T23:41:12.559Z,1.90
2019-02-21T23:43:41.334Z,1.90
2019-02-21T23:46:09.855Z,1.90
2019-02-21T23:48:38.357Z,1.80
2019-02-21T23:51:06.813Z,1.70
2019-02-21T23:53:35.555Z,1.60
2019-02-21T23:56:04.001Z,1.40
2019-02-21T23:58:32.464Z,1.40
